sensor_id;sensor_type;location;lat;lon;timestamp;temperature;humidity
14735;DHT22;7458;49.002;8.472;2023-03-01T00:01:18;1.80;99.00
14735;DHT22;7458;49.002;8.472;2023-03-01T00:03:45;1.70;99.00
14735;DHT22;7458;49.002;8.472;2023-03-01T00:06:11;1.80;99.20
14735;DHT22;7458;49.002;8.472;2023-03-01T00:08:37;1.90;99.10
14735;DHT22;7458;49.002;8.472;2023-03-01T00:11:13;1.80;99.20
14735;DHT22;7458;49.002;8.472;2023-03-01T00:13:43;1.80;99.20
14735;DHT22;7458;49.002;8.472;2023-03-01T00:16:16;1.70;99.30
14735;DHT22;7458;49.002;8.472;2023-03-01T00:18:47;1.70;99.30
14735;DHT22;7458;49.002;8.472;2023-03-01T00:21:13;1.70;99.40
14735;DHT22;7458;49.002;8.472;2023-03-01T00:23:40;1.60;99.40
14735;DHT22;7458;49.002;8.472;2023-03-01T00:26:12;1.70;99.60
14735;DHT22;7458;49.002;8.472;2023-03-01T00:28:39;1.90;99.70
14735;DHT22;7458;49.002;8.472;2023-03-01T00:31:07;1.70;99.80
14735;DHT22;7458;49.002;8.472;2023-03-01T00:33:42;1.70;99.90
14735;DHT22;7458;49.002;8.472;2023-03-01T00:36:11;1.60;99.90
14735;DHT22;7458;49.002;8.472;2023-03-01T00:38:41;1.60;99.90
14735;DHT22;7458;49.002;8.472;2023-03-01T00:41:13;1.60;99.90
14735;DHT22;7458;49.002;8.472;2023-03-01T00:43:41;1.60;99.90
14735;DHT22;7458;49.002;8.472;2023-03-01T00:46:10;1.70;99.90
14735;DHT22;7458;49.002;8.472;2023-03-01T00:48:40;1.60;99.90
14735;DHT22;7458;49.002;8.472;2023-03-01T00:51:10;1.50;99.90
14735;DHT22;7458;49.002;8.472;2023-03-01T00:53:45;1.50;99.90
14735;DHT22;7458;49.002;8.472;2023-03-01T00:56:14;2.70;99.90
14735;DHT22;7458;49.002;8.472;2023-03-01T00:58:41;1.40;99.90
14735;DHT22;7458;49.002;8.472;2023-03-01T01:01:16;1.40;99.90
14735;DHT22;7458;49.002;8.472;2023-03-01T01:03:44;1.30;99.90
14735;DHT22;7458;49.002;8.472;2023-03-01T01:08:52;1.20;99.90
14735;DHT22;7458;49.002;8.472;2023-03-01T01:11:20;1.20;99.90
14735;DHT22;7458;49.002;8.472;2023-03-01T01:13:48;1.70;99.90
14735;DHT22;7458;49.002;8.472;2023-03-01T01:16:16;1.30;99.90
14735;DHT22;7458;49.002;8.472;2023-03-01T01:18:44;1.30;99.90
14735;DHT22;7458;49.002;8.472;2023-03-01T01:21:16;1.30;99.90
14735;DHT22;7458;49.002;8.472;2023-03-01T01:23:45;1.30;99.90
14735;DHT22;7458;49.002;8.472;2023-03-01T01:26:14;1.30;99.90
14735;DHT22;7458;49.002;8.472;2023-03-01T01:28:42;1.30;99.90
14735;DHT22;7458;49.002;8.472;2023-03-01T01:31:08;1.30;99.90
14735;DHT22;7458;49.002;8.472;2023-03-01T01:33:34;1.30;99.90
14735;DHT22;7458;49.002;8.472;2023-03-01T01:36:00;1.30;99.90
14735;DHT22;7458;49.002;8.472;2023-03-01T01:38:26;2.10;99.90
14735;DHT22;7458;49.002;8.472;2023-03-01T01:40:52;1.50;99.90
14735;DHT22;7458;49.002;8.472;2023-03-01T01:43:25;1.30;99.90
14735;DHT22;7458;49.002;8.472;2023-03-01T01:45:55;1.20;99.90
14735;DHT22;7458;49.002;8.472;2023-03-01T01:48:29;1.20;99.90
14735;DHT22;7458;49.002;8.472;2023-03-01T01:51:07;1.20;99.90
14735;DHT22;7458;49.002;8.472;2023-03-01T01:53:38;1.20;99.90
14735;DHT22;7458;49.002;8.472;2023-03-01T01:56:06;1.20;99.90
14735;DHT22;7458;49.002;8.472;2023-03-01T01:58:35;1.20;99.90
14735;DHT22;7458;49.002;8.472;2023-03-01T02:01:03;2.40;99.90
14735;DHT22;7458;49.002;8.472;2023-03-01T02:03:31;1.00;99.90
14735;DHT22;7458;49.002;8.472;2023-03-01T02:06:37;1.10;99.90
14735;DHT22;7458;49.002;8.472;2023-03-01T02:09:13;1.00;99.90
14735;DHT22;7458;49.002;8.472;2023-03-01T02:11:41;1.70;99.90
14735;DHT22;7458;49.002;8.472;2023-03-01T02:14:08;2.20;99.90
14735;DHT22;7458;49.002;8.472;2023-03-01T02:16:35;1.00;99.90
14735;DHT22;7458;49.002;8.472;2023-03-01T02:19:01;1.00;99.90
14735;DHT22;7458;49.002;8.472;2023-03-01T02:27:27;0.90;99.90
14735;DHT22;7458;49.002;8.472;2023-03-01T02:30:02;0.90;99.90
14735;DHT22;7458;49.002;8.472;2023-03-01T02:32:28;0.80;99.90
14735;DHT22;7458;49.002;8.472;2023-03-01T02:34:55;1.40;99.90
14735;DHT22;7458;49.002;8.472;2023-03-01T02:37:22;1.00;99.90
14735;DHT22;7458;49.002;8.472;2023-03-01T02:39:55;1.60;99.90
14735;DHT22;7458;49.002;8.472;2023-03-01T02:42:33;1.00;99.90
14735;DHT22;7458;49.002;8.472;2023-03-01T02:45:04;1.00;99.90
14735;DHT22;7458;49.002;8.472;2023-03-01T02:47:30;1.00;99.90
14735;DHT22;7458;49.002;8.472;2023-03-01T02:49:56;0.70;99.90
14735;DHT22;7458;49.002;8.472;2023-03-01T02:54:51;1.00;99.90
14735;DHT22;7458;49.002;8.472;2023-03-01T02:57:22;0.90;99.90
14735;DHT22;7458;49.002;8.472;2023-03-01T02:59:50;0.90;99.90
14735;DHT22;7458;49.002;8.472;2023-03-01T03:02:26;1.00;99.90
14735;DHT22;7458;49.002;8.472;2023-03-01T03:05:13;1.00;99.90
14735;DHT22;7458;49.002;8.472;2023-03-01T03:07:41;1.00;99.90
14735;DHT22;7458;49.002;8.472;2023-03-01T03:10:11;1.00;99.90
14735;DHT22;7458;49.002;8.472;2023-03-01T03:12:40;0.90;99.90
14735;DHT22;7458;49.002;8.472;2023-03-01T03:15:08;1.40;99.90
14735;DHT22;7458;49.002;8.472;2023-03-01T03:17:39;1.00;99.90
14735;DHT22;7458;49.002;8.472;2023-03-01T03:20:08;1.00;99.90
14735;DHT22;7458;49.002;8.472;2023-03-01T03:22:38;0.90;99.90
14735;DHT22;7458;49.002;8.472;2023-03-01T03:25:06;2.10;99.90
14735;DHT22;7458;49.002;8.472;2023-03-01T03:27:36;0.80;99.90
14735;DHT22;7458;49.002;8.472;2023-03-01T03:30:06;1.20;99.90
14735;DHT22;7458;49.002;8.472;2023-03-01T03:32:36;0.90;99.90
14735;DHT22;7458;49.002;8.472;2023-03-01T03:35:06;0.80;99.90
14735;DHT22;7458;49.002;8.472;2023-03-01T03:37:38;0.80;99.90
14735;DHT22;7458;49.002;8.472;2023-03-01T03:40:24;1.50;99.90
14735;DHT22;7458;49.002;8.472;2023-03-01T03:42:52;0.70;99.90
14735;DHT22;7458;49.002;8.472;2023-03-01T03:45:18;1.80;99.90
14735;DHT22;7458;49.002;8.472;2023-03-01T03:47:44;0.60;99.90
14735;DHT22;7458;49.002;8.472;2023-03-01T03:50:15;0.60;99.90
14735;DHT22;7458;49.002;8.472;2023-03-01T03:52:42;0.60;99.90
14735;DHT22;7458;49.002;8.472;2023-03-01T03:55:10;0.60;99.90
14735;DHT22;7458;49.002;8.472;2023-03-01T03:57:38;0.70;99.90
14735;DHT22;7458;49.002;8.472;2023-03-01T04:00:06;0.60;99.90
14735;DHT22;7458;49.002;8.472;2023-03-01T04:02:40;0.60;99.90
14735;DHT22;7458;49.002;8.472;2023-03-01T04:05:10;0.60;99.90
14735;DHT22;7458;49.002;8.472;2023-03-01T04:07:38;0.60;99.90
14735;DHT22;7458;49.002;8.472;2023-03-01T04:10:05;0.60;99.90
14735;DHT22;7458;49.002;8.472;2023-03-01T04:12:33;0.70;99.90
14735;DHT22;7458;49.002;8.472;2023-03-01T04:15:01;0.70;99.90
14735;DHT22;7458;49.002;8.472;2023-03-01T04:17:28;0.70;99.90
14735;DHT22;7458;49.002;8.472;2023-03-01T04:19:54;2.00;99.90
14735;DHT22;7458;49.002;8.472;2023-03-01T04:22:20;0.90;99.90
14735;DHT22;7458;49.002;8.472;2023-03-01T04:24:45;0.80;99.90
14735;DHT22;7458;49.002;8.472;2023-03-01T04:27:11;1.70;99.90
14735;DHT22;7458;49.002;8.472;2023-03-01T04:29:37;0.60;99.90
14735;DHT22;7458;49.002;8.472;2023-03-01T04:32:03;1.10;99.90
14735;DHT22;7458;49.002;8.472;2023-03-01T04:34:29;0.50;99.90
14735;DHT22;7458;49.002;8.472;2023-03-01T04:36:55;0.50;99.90
14735;DHT22;7458;49.002;8.472;2023-03-01T04:39:21;0.50;99.90
14735;DHT22;7458;49.002;8.472;2023-03-01T04:41:47;0.50;99.90
14735;DHT22;7458;49.002;8.472;2023-03-01T04:44:12;0.50;99.90
14735;DHT22;7458;49.002;8.472;2023-03-01T04:46:39;0.50;99.90
14735;DHT22;7458;49.002;8.472;2023-03-01T04:49:05;0.50;99.90
14735;DHT22;7458;49.002;8.472;2023-03-01T04:51:31;1.60;99.90
14735;DHT22;7458;49.002;8.472;2023-03-01T04:53:59;0.50;99.90
14735;DHT22;7458;49.002;8.472;2023-03-01T04:56:25;3.00;99.90
14735;DHT22;7458;49.002;8.472;2023-03-01T04:58:53;0.40;99.90
14735;DHT22;7458;49.002;8.472;2023-03-01T05:01:20;1.20;99.90
14735;DHT22;7458;49.002;8.472;2023-03-01T05:03:50;1.00;99.90
14735;DHT22;7458;49.002;8.472;2023-03-01T05:06:17;0.40;99.90
14735;DHT22;7458;49.002;8.472;2023-03-01T05:08:44;0.40;99.90
14735;DHT22;7458;49.002;8.472;2023-03-01T05:11:10;0.30;99.90
14735;DHT22;7458;49.002;8.472;2023-03-01T05:13:37;0.40;99.90
14735;DHT22;7458;49.002;8.472;2023-03-01T05:16:05;2.00;99.90
14735;DHT22;7458;49.002;8.472;2023-03-01T05:18:33;0.40;99.90
14735;DHT22;7458;49.002;8.472;2023-03-01T05:21:07;0.40;99.90
14735;DHT22;7458;49.002;8.472;2023-03-01T05:23:36;0.30;99.90
14735;DHT22;7458;49.002;8.472;2023-03-01T05:26:04;0.40;99.90
14735;DHT22;7458;49.002;8.472;2023-03-01T05:28:32;0.30;99.90
14735;DHT22;7458;49.002;8.472;2023-03-01T05:30:58;0.70;99.90
14735;DHT22;7458;49.002;8.472;2023-03-01T05:33:24;0.10;99.90
14735;DHT22;7458;49.002;8.472;2023-03-01T05:35:51;0.10;99.90
14735;DHT22;7458;49.002;8.472;2023-03-01T05:38:19;0.20;99.90
14735;DHT22;7458;49.002;8.472;2023-03-01T05:40:47;0.20;99.90
14735;DHT22;7458;49.002;8.472;2023-03-01T05:43:15;0.60;99.90
14735;DHT22;7458;49.002;8.472;2023-03-01T05:45:42;0.20;99.90
14735;DHT22;7458;49.002;8.472;2023-03-01T05:48:10;0.20;99.90
14735;DHT22;7458;49.002;8.472;2023-03-01T05:50:40;0.10;99.90
14735;DHT22;7458;49.002;8.472;2023-03-01T05:53:11;0.20;99.90
14735;DHT22;7458;49.002;8.472;2023-03-01T05:55:43;0.80;99.90
14735;DHT22;7458;49.002;8.472;2023-03-01T05:58:14;0.10;99.90
14735;DHT22;7458;49.002;8.472;2023-03-01T06:00:42;0.80;99.90
14735;DHT22;7458;49.002;8.472;2023-03-01T06:03:11;0.30;99.90
14735;DHT22;7458;49.002;8.472;2023-03-01T06:05:39;0.30;99.90
14735;DHT22;7458;49.002;8.472;2023-03-01T06:08:05;2.00;99.90
14735;DHT22;7458;49.002;8.472;2023-03-01T06:10:32;1.60;99.90
14735;DHT22;7458;49.002;8.472;2023-03-01T06:12:58;0.90;99.90
14735;DHT22;7458;49.002;8.472;2023-03-01T06:15:24;0.30;99.90
14735;DHT22;7458;49.002;8.472;2023-03-01T06:17:52;1.20;99.90
14735;DHT22;7458;49.002;8.472;2023-03-01T06:20:22;0.60;99.90
14735;DHT22;7458;49.002;8.472;2023-03-01T06:22:50;0.30;99.90
14735;DHT22;7458;49.002;8.472;2023-03-01T06:25:22;0.20;99.90
14735;DHT22;7458;49.002;8.472;2023-03-01T06:27:48;1.10;99.90
14735;DHT22;7458;49.002;8.472;2023-03-01T06:30:16;1.10;99.90
14735;DHT22;7458;49.002;8.472;2023-03-01T06:32:44;0.30;99.90
14735;DHT22;7458;49.002;8.472;2023-03-01T06:35:11;0.30;99.90
14735;DHT22;7458;49.002;8.472;2023-03-01T06:37:47;0.30;99.90
14735;DHT22;7458;49.002;8.472;2023-03-01T06:40:14;0.30;99.90
14735;DHT22;7458;49.002;8.472;2023-03-01T06:42:42;0.40;99.90
14735;DHT22;7458;49.002;8.472;2023-03-01T06:45:12;2.10;99.90
14735;DHT22;7458;49.002;8.472;2023-03-01T06:47:38;0.40;99.90
14735;DHT22;7458;49.002;8.472;2023-03-01T06:50:04;0.50;99.90
14735;DHT22;7458;49.002;8.472;2023-03-01T06:52:31;0.60;99.90
14735;DHT22;7458;49.002;8.472;2023-03-01T06:54:56;0.60;99.90
14735;DHT22;7458;49.002;8.472;2023-03-01T06:57:22;0.80;99.90
14735;DHT22;7458;49.002;8.472;2023-03-01T06:59:48;0.90;99.90
14735;DHT22;7458;49.002;8.472;2023-03-01T07:02:14;1.60;99.90
14735;DHT22;7458;49.002;8.472;2023-03-01T07:04:40;1.30;99.90
14735;DHT22;7458;49.002;8.472;2023-03-01T07:07:07;1.90;99.90
14735;DHT22;7458;49.002;8.472;2023-03-01T07:09:34;2.40;99.90
14735;DHT22;7458;49.002;8.472;2023-03-01T07:12:00;3.40;99.90
14735;DHT22;7458;49.002;8.472;2023-03-01T07:14:26;3.50;99.90
14735;DHT22;7458;49.002;8.472;2023-03-01T07:16:53;3.80;99.90
14735;DHT22;7458;49.002;8.472;2023-03-01T07:19:20;4.20;99.10
14735;DHT22;7458;49.002;8.472;2023-03-01T07:21:46;4.20;97.90
14735;DHT22;7458;49.002;8.472;2023-03-01T07:24:12;4.40;96.90
14735;DHT22;7458;49.002;8.472;2023-03-01T07:26:37;4.60;96.00
14735;DHT22;7458;49.002;8.472;2023-03-01T07:29:05;5.10;96.00
14735;DHT22;7458;49.002;8.472;2023-03-01T07:31:32;4.90;94.80
14735;DHT22;7458;49.002;8.472;2023-03-01T07:33:58;5.20;94.30
14735;DHT22;7458;49.002;8.472;2023-03-01T07:36:27;5.30;93.40
14735;DHT22;7458;49.002;8.472;2023-03-01T07:38:53;5.60;92.40
14735;DHT22;7458;49.002;8.472;2023-03-01T07:41:21;5.90;92.10
14735;DHT22;7458;49.002;8.472;2023-03-01T07:43:47;5.70;91.10
14735;DHT22;7458;49.002;8.472;2023-03-01T07:46:12;6.10;91.10
14735;DHT22;7458;49.002;8.472;2023-03-01T07:48:38;5.80;89.80
14735;DHT22;7458;49.002;8.472;2023-03-01T07:51:05;5.80;89.70
14735;DHT22;7458;49.002;8.472;2023-03-01T07:53:32;6.10;89.80
14735;DHT22;7458;49.002;8.472;2023-03-01T07:56:03;6.10;88.90
14735;DHT22;7458;49.002;8.472;2023-03-01T07:58:31;6.10;87.90
14735;DHT22;7458;49.002;8.472;2023-03-01T08:01:05;6.20;86.80
14735;DHT22;7458;49.002;8.472;2023-03-01T08:03:32;6.20;86.20
14735;DHT22;7458;49.002;8.472;2023-03-01T08:06:03;6.00;85.90
14735;DHT22;7458;49.002;8.472;2023-03-01T08:08:32;6.00;86.00
14735;DHT22;7458;49.002;8.472;2023-03-01T08:10:59;5.70;86.20
14735;DHT22;7458;49.002;8.472;2023-03-01T08:13:26;5.70;86.40
14735;DHT22;7458;49.002;8.472;2023-03-01T08:15:52;5.60;86.60
14735;DHT22;7458;49.002;8.472;2023-03-01T08:18:19;5.40;87.00
14735;DHT22;7458;49.002;8.472;2023-03-01T08:20:46;5.30;87.10
14735;DHT22;7458;49.002;8.472;2023-03-01T08:23:12;5.40;87.10
14735;DHT22;7458;49.002;8.472;2023-03-01T08:25:39;5.30;87.60
14735;DHT22;7458;49.002;8.472;2023-03-01T08:28:05;5.50;87.20
14735;DHT22;7458;49.002;8.472;2023-03-01T08:30:31;5.50;86.60
14735;DHT22;7458;49.002;8.472;2023-03-01T08:32:57;5.30;86.20
14735;DHT22;7458;49.002;8.472;2023-03-01T08:35:23;5.30;86.80
14735;DHT22;7458;49.002;8.472;2023-03-01T08:37:49;5.20;86.60
14735;DHT22;7458;49.002;8.472;2023-03-01T08:40:15;5.00;86.90
14735;DHT22;7458;49.002;8.472;2023-03-01T08:42:41;4.70;87.70
14735;DHT22;7458;49.002;8.472;2023-03-01T08:45:11;4.80;88.30
14735;DHT22;7458;49.002;8.472;2023-03-01T08:47:39;5.10;87.90
14735;DHT22;7458;49.002;8.472;2023-03-01T08:50:05;5.40;87.50
14735;DHT22;7458;49.002;8.472;2023-03-01T08:52:32;5.40;86.90
14735;DHT22;7458;49.002;8.472;2023-03-01T08:54:59;5.60;93.20
14735;DHT22;7458;49.002;8.472;2023-03-01T08:57:26;5.80;87.60
14735;DHT22;7458;49.002;8.472;2023-03-01T08:59:52;5.70;85.00
14735;DHT22;7458;49.002;8.472;2023-03-01T09:02:18;5.90;85.30
14735;DHT22;7458;49.002;8.472;2023-03-01T09:04:44;5.60;85.30
14735;DHT22;7458;49.002;8.472;2023-03-01T09:07:10;5.30;86.20
14735;DHT22;7458;49.002;8.472;2023-03-01T09:09:36;5.30;86.60
14735;DHT22;7458;49.002;8.472;2023-03-01T09:12:03;5.10;87.40
14735;DHT22;7458;49.002;8.472;2023-03-01T09:14:29;4.90;87.90
14735;DHT22;7458;49.002;8.472;2023-03-01T09:16:55;4.90;87.70
14735;DHT22;7458;49.002;8.472;2023-03-01T09:19:21;5.20;87.90
14735;DHT22;7458;49.002;8.472;2023-03-01T09:21:47;5.00;87.90
14735;DHT22;7458;49.002;8.472;2023-03-01T09:24:20;4.70;88.30
14735;DHT22;7458;49.002;8.472;2023-03-01T09:26:47;4.70;89.50
14735;DHT22;7458;49.002;8.472;2023-03-01T09:29:15;4.80;90.10
14735;DHT22;7458;49.002;8.472;2023-03-01T09:31:42;4.80;90.20
14735;DHT22;7458;49.002;8.472;2023-03-01T09:34:08;4.80;89.60
14735;DHT22;7458;49.002;8.472;2023-03-01T09:36:35;5.00;89.60
14735;DHT22;7458;49.002;8.472;2023-03-01T09:39:02;5.30;89.30
14735;DHT22;7458;49.002;8.472;2023-03-01T09:47:01;6.80;84.40
14735;DHT22;7458;49.002;8.472;2023-03-01T09:49:31;6.80;84.30
14735;DHT22;7458;49.002;8.472;2023-03-01T09:52:23;7.20;82.50
14735;DHT22;7458;49.002;8.472;2023-03-01T09:54:56;7.60;80.90
14735;DHT22;7458;49.002;8.472;2023-03-01T10:02:56;8.00;78.20
14735;DHT22;7458;49.002;8.472;2023-03-01T10:11:20;8.10;77.20
14735;DHT22;7458;49.002;8.472;2023-03-01T10:16:36;8.80;75.80
14735;DHT22;7458;49.002;8.472;2023-03-01T10:19:38;8.90;73.60
14735;DHT22;7458;49.002;8.472;2023-03-01T10:22:20;8.90;71.60
14735;DHT22;7458;49.002;8.472;2023-03-01T10:25:02;9.10;72.70
14735;DHT22;7458;49.002;8.472;2023-03-01T10:27:47;9.20;71.90
14735;DHT22;7458;49.002;8.472;2023-03-01T10:30:20;9.10;71.20
14735;DHT22;7458;49.002;8.472;2023-03-01T10:32:54;9.20;70.80
14735;DHT22;7458;49.002;8.472;2023-03-01T10:35:28;8.90;69.20
14735;DHT22;7458;49.002;8.472;2023-03-01T10:38:07;8.90;70.30
14735;DHT22;7458;49.002;8.472;2023-03-01T10:40:36;8.90;69.90
14735;DHT22;7458;49.002;8.472;2023-03-01T10:43:16;9.00;70.10
14735;DHT22;7458;49.002;8.472;2023-03-01T10:45:42;9.00;69.50
14735;DHT22;7458;49.002;8.472;2023-03-01T10:50:45;8.80;68.30
14735;DHT22;7458;49.002;8.472;2023-03-01T10:53:22;8.90;69.90
14735;DHT22;7458;49.002;8.472;2023-03-01T10:56:03;8.90;69.30
14735;DHT22;7458;49.002;8.472;2023-03-01T10:58:33;8.90;69.40
14735;DHT22;7458;49.002;8.472;2023-03-01T11:01:28;9.20;68.60
14735;DHT22;7458;49.002;8.472;2023-03-01T11:06:33;9.20;66.90
14735;DHT22;7458;49.002;8.472;2023-03-01T11:09:29;9.30;67.80
14735;DHT22;7458;49.002;8.472;2023-03-01T11:12:04;9.40;67.50
14735;DHT22;7458;49.002;8.472;2023-03-01T11:14:47;9.40;66.80
14735;DHT22;7458;49.002;8.472;2023-03-01T11:17:16;9.80;66.50
14735;DHT22;7458;49.002;8.472;2023-03-01T11:22:55;10.20;66.10
14735;DHT22;7458;49.002;8.472;2023-03-01T11:25:37;10.00;64.20
14735;DHT22;7458;49.002;8.472;2023-03-01T11:28:13;9.80;64.90
14735;DHT22;7458;49.002;8.472;2023-03-01T11:30:55;10.20;64.70
14735;DHT22;7458;49.002;8.472;2023-03-01T11:33:37;9.90;63.60
14735;DHT22;7458;49.002;8.472;2023-03-01T11:38:57;10.10;65.80
14735;DHT22;7458;49.002;8.472;2023-03-01T11:41:33;10.00;64.90
14735;DHT22;7458;49.002;8.472;2023-03-01T11:44:04;9.90;64.00
14735;DHT22;7458;49.002;8.472;2023-03-01T11:47:05;9.80;64.50
14735;DHT22;7458;49.002;8.472;2023-03-01T11:55:19;10.00;64.90
14735;DHT22;7458;49.002;8.472;2023-03-01T12:06:48;10.10;63.20
14735;DHT22;7458;49.002;8.472;2023-03-01T12:09:32;10.20;64.80
14735;DHT22;7458;49.002;8.472;2023-03-01T12:12:31;10.20;63.70
14735;DHT22;7458;49.002;8.472;2023-03-01T12:21:35;10.00;63.10
14735;DHT22;7458;49.002;8.472;2023-03-01T12:24:33;10.30;63.00
14735;DHT22;7458;49.002;8.472;2023-03-01T12:33:36;9.70;64.30
14735;DHT22;7458;49.002;8.472;2023-03-01T12:44:57;9.20;65.30
14735;DHT22;7458;49.002;8.472;2023-03-01T12:50:37;9.10;65.50
14735;DHT22;7458;49.002;8.472;2023-03-01T12:53:27;9.20;66.00
14735;DHT22;7458;49.002;8.472;2023-03-01T12:56:07;9.10;65.60
14735;DHT22;7458;49.002;8.472;2023-03-01T13:02:10;9.10;66.30
14735;DHT22;7458;49.002;8.472;2023-03-01T13:08:12;9.00;66.30
14735;DHT22;7458;49.002;8.472;2023-03-01T13:11:00;8.90;66.60
14735;DHT22;7458;49.002;8.472;2023-03-01T13:13:29;8.80;66.40
14735;DHT22;7458;49.002;8.472;2023-03-01T13:15:57;8.80;67.00
14735;DHT22;7458;49.002;8.472;2023-03-01T13:18:42;9.00;67.20
14735;DHT22;7458;49.002;8.472;2023-03-01T13:21:08;9.10;66.80
14735;DHT22;7458;49.002;8.472;2023-03-01T13:23:37;9.00;66.40
14735;DHT22;7458;49.002;8.472;2023-03-01T13:33:58;8.80;67.20
14735;DHT22;7458;49.002;8.472;2023-03-01T13:38:58;9.00;66.70
14735;DHT22;7458;49.002;8.472;2023-03-01T13:44:33;9.10;66.50
14735;DHT22;7458;49.002;8.472;2023-03-01T13:49:42;9.20;66.90
14735;DHT22;7458;49.002;8.472;2023-03-01T13:52:44;9.30;66.10
14735;DHT22;7458;49.002;8.472;2023-03-01T13:57:48;9.20;65.60
14735;DHT22;7458;49.002;8.472;2023-03-01T14:03:09;9.10;66.50
14735;DHT22;7458;49.002;8.472;2023-03-01T14:05:38;9.00;65.80
14735;DHT22;7458;49.002;8.472;2023-03-01T14:08:14;8.90;66.50
14735;DHT22;7458;49.002;8.472;2023-03-01T14:13:54;8.90;69.10
14735;DHT22;7458;49.002;8.472;2023-03-01T14:19:39;9.20;65.90
14735;DHT22;7458;49.002;8.472;2023-03-01T14:22:16;9.00;66.50
14735;DHT22;7458;49.002;8.472;2023-03-01T14:25:24;9.10;66.40
14735;DHT22;7458;49.002;8.472;2023-03-01T14:30:47;9.30;67.40
14735;DHT22;7458;49.002;8.472;2023-03-01T14:33:26;9.20;66.60
14735;DHT22;7458;49.002;8.472;2023-03-01T14:36:08;9.10;66.90
14735;DHT22;7458;49.002;8.472;2023-03-01T14:38:39;9.00;66.80
14735;DHT22;7458;49.002;8.472;2023-03-01T14:41:17;10.10;89.20
14735;DHT22;7458;49.002;8.472;2023-03-01T14:43:49;9.90;67.40
14735;DHT22;7458;49.002;8.472;2023-03-01T14:49:16;9.30;67.00
14735;DHT22;7458;49.002;8.472;2023-03-01T14:52:06;9.10;66.50
14735;DHT22;7458;49.002;8.472;2023-03-01T14:54:53;9.20;67.30
14735;DHT22;7458;49.002;8.472;2023-03-01T14:57:22;9.00;67.10
14735;DHT22;7458;49.002;8.472;2023-03-01T14:59:52;9.00;67.50
14735;DHT22;7458;49.002;8.472;2023-03-01T15:02:25;9.00;67.40
14735;DHT22;7458;49.002;8.472;2023-03-01T15:04:55;9.00;67.20
14735;DHT22;7458;49.002;8.472;2023-03-01T15:07:29;9.10;67.80
14735;DHT22;7458;49.002;8.472;2023-03-01T15:09:58;9.30;67.10
14735;DHT22;7458;49.002;8.472;2023-03-01T15:14:55;9.20;66.80
14735;DHT22;7458;49.002;8.472;2023-03-01T15:17:34;9.10;67.10
14735;DHT22;7458;49.002;8.472;2023-03-01T15:20:06;9.20;67.20
14735;DHT22;7458;49.002;8.472;2023-03-01T15:22:44;9.00;66.80
14735;DHT22;7458;49.002;8.472;2023-03-01T15:25:18;8.90;67.40
14735;DHT22;7458;49.002;8.472;2023-03-01T15:27:47;9.00;74.40
14735;DHT22;7458;49.002;8.472;2023-03-01T15:30:24;9.30;68.20
14735;DHT22;7458;49.002;8.472;2023-03-01T15:33:39;9.20;67.00
14735;DHT22;7458;49.002;8.472;2023-03-01T15:36:33;9.20;67.50
14735;DHT22;7458;49.002;8.472;2023-03-01T15:38:59;9.10;66.40
14735;DHT22;7458;49.002;8.472;2023-03-01T15:41:45;9.20;66.80
14735;DHT22;7458;49.002;8.472;2023-03-01T15:44:24;9.10;66.30
14735;DHT22;7458;49.002;8.472;2023-03-01T15:46:52;9.10;67.00
14735;DHT22;7458;49.002;8.472;2023-03-01T15:52:13;9.00;66.50
14735;DHT22;7458;49.002;8.472;2023-03-01T15:54:47;8.80;66.30
14735;DHT22;7458;49.002;8.472;2023-03-01T15:57:16;8.90;66.80
14735;DHT22;7458;49.002;8.472;2023-03-01T15:59:42;8.70;67.20
14735;DHT22;7458;49.002;8.472;2023-03-01T16:02:11;8.60;67.00
14735;DHT22;7458;49.002;8.472;2023-03-01T16:04:38;8.70;66.90
14735;DHT22;7458;49.002;8.472;2023-03-01T16:07:05;8.70;67.20
14735;DHT22;7458;49.002;8.472;2023-03-01T16:09:31;8.50;67.50
14735;DHT22;7458;49.002;8.472;2023-03-01T16:11:57;8.50;68.00
14735;DHT22;7458;49.002;8.472;2023-03-01T16:14:23;8.40;68.40
14735;DHT22;7458;49.002;8.472;2023-03-01T16:16:49;8.50;68.20
14735;DHT22;7458;49.002;8.472;2023-03-01T16:19:16;8.40;68.20
14735;DHT22;7458;49.002;8.472;2023-03-01T16:21:42;8.30;68.50
14735;DHT22;7458;49.002;8.472;2023-03-01T16:24:09;8.30;68.70
14735;DHT22;7458;49.002;8.472;2023-03-01T16:26:36;8.30;69.10
14735;DHT22;7458;49.002;8.472;2023-03-01T16:29:03;8.40;69.60
14735;DHT22;7458;49.002;8.472;2023-03-01T16:31:30;8.40;69.00
14735;DHT22;7458;49.002;8.472;2023-03-01T16:33:57;8.40;69.20
14735;DHT22;7458;49.002;8.472;2023-03-01T16:36:26;8.40;69.30
14735;DHT22;7458;49.002;8.472;2023-03-01T16:38:54;8.40;69.00
14735;DHT22;7458;49.002;8.472;2023-03-01T16:41:23;8.40;68.80
14735;DHT22;7458;49.002;8.472;2023-03-01T16:43:49;8.30;69.30
14735;DHT22;7458;49.002;8.472;2023-03-01T16:46:18;8.30;69.50
14735;DHT22;7458;49.002;8.472;2023-03-01T16:48:47;8.20;69.40
14735;DHT22;7458;49.002;8.472;2023-03-01T16:51:13;8.10;69.50
14735;DHT22;7458;49.002;8.472;2023-03-01T16:53:40;8.10;69.70
14735;DHT22;7458;49.002;8.472;2023-03-01T16:56:09;8.00;69.80
14735;DHT22;7458;49.002;8.472;2023-03-01T16:58:37;8.10;69.50
14735;DHT22;7458;49.002;8.472;2023-03-01T17:01:09;8.00;69.40
14735;DHT22;7458;49.002;8.472;2023-03-01T17:03:38;8.00;69.70
14735;DHT22;7458;49.002;8.472;2023-03-01T17:06:06;7.90;69.70
14735;DHT22;7458;49.002;8.472;2023-03-01T17:08:35;7.90;69.80
14735;DHT22;7458;49.002;8.472;2023-03-01T17:11:04;7.90;70.20
14735;DHT22;7458;49.002;8.472;2023-03-01T17:13:34;7.80;70.20
14735;DHT22;7458;49.002;8.472;2023-03-01T17:16:04;7.80;70.60
14735;DHT22;7458;49.002;8.472;2023-03-01T17:18:31;7.80;70.60
14735;DHT22;7458;49.002;8.472;2023-03-01T17:20:57;7.80;70.60
14735;DHT22;7458;49.002;8.472;2023-03-01T17:23:23;7.80;70.70
14735;DHT22;7458;49.002;8.472;2023-03-01T17:25:48;7.80;70.80
14735;DHT22;7458;49.002;8.472;2023-03-01T17:28:14;7.80;70.90
14735;DHT22;7458;49.002;8.472;2023-03-01T17:30:44;7.70;70.80
14735;DHT22;7458;49.002;8.472;2023-03-01T17:33:12;7.70;71.20
14735;DHT22;7458;49.002;8.472;2023-03-01T17:35:38;7.70;71.30
14735;DHT22;7458;49.002;8.472;2023-03-01T17:38:05;7.60;71.30
14735;DHT22;7458;49.002;8.472;2023-03-01T17:40:32;7.60;71.60
14735;DHT22;7458;49.002;8.472;2023-03-01T17:43:00;7.60;71.70
14735;DHT22;7458;49.002;8.472;2023-03-01T17:45:26;7.60;71.70
14735;DHT22;7458;49.002;8.472;2023-03-01T17:47:52;7.50;71.90
14735;DHT22;7458;49.002;8.472;2023-03-01T17:50:18;7.50;71.90
14735;DHT22;7458;49.002;8.472;2023-03-01T17:52:44;7.50;72.00
14735;DHT22;7458;49.002;8.472;2023-03-01T17:55:10;7.50;71.90
14735;DHT22;7458;49.002;8.472;2023-03-01T17:57:39;7.40;72.20
14735;DHT22;7458;49.002;8.472;2023-03-01T18:00:10;7.50;72.80
14735;DHT22;7458;49.002;8.472;2023-03-01T18:02:38;7.40;72.70
14735;DHT22;7458;49.002;8.472;2023-03-01T18:05:04;7.50;72.60
14735;DHT22;7458;49.002;8.472;2023-03-01T18:07:30;7.60;72.80
14735;DHT22;7458;49.002;8.472;2023-03-01T18:09:56;7.60;72.60
14735;DHT22;7458;49.002;8.472;2023-03-01T18:12:21;7.60;72.80
14735;DHT22;7458;49.002;8.472;2023-03-01T18:14:51;7.60;72.60
14735;DHT22;7458;49.002;8.472;2023-03-01T18:17:24;7.50;72.60
14735;DHT22;7458;49.002;8.472;2023-03-01T18:19:50;7.50;72.70
14735;DHT22;7458;49.002;8.472;2023-03-01T18:22:16;7.50;72.90
14735;DHT22;7458;49.002;8.472;2023-03-01T18:24:43;7.40;73.70
14735;DHT22;7458;49.002;8.472;2023-03-01T18:27:09;7.30;74.50
14735;DHT22;7458;49.002;8.472;2023-03-01T18:29:38;7.30;75.10